createdAt,value
2024-03-09T00:00:58.672Z,14.52
2024-03-09T00:03:32.637Z,14.51
2024-03-09T00:06:13.380Z,14.49
2024-03-09T00:08:52.315Z,14.49
2024-03-09T00:11:22.065Z,14.48
2024-03-09T00:13:52.546Z,14.49
2024-03-09T00:16:21.455Z,14.51
2024-03-09T00:18:55.775Z,14.54
2024-03-09T00:21:25.584Z,14.54
2024-03-09T00:23:54.206Z,14.53
2024-03-09T00:26:24.628Z,14.54
2024-03-09T00:28:56.129Z,14.54
2024-03-09T00:31:27.489Z,14.52
2024-03-09T00:33:59.277Z,14.53
2024-03-09T00:36:31.677Z,14.48
2024-03-09T00:39:15.564Z,14.48
2024-03-09T00:41:44.863Z,14.44
2024-03-09T00:44:17.550Z,14.44
2024-03-09T00:46:48.067Z,14.43
2024-03-09T00:49:21.636Z,14.42
2024-03-09T00:51:53.582Z,14.42
2024-03-09T00:54:24.613Z,14.42
2024-03-09T00:56:55.129Z,14.42
2024-03-09T00:59:26.463Z,14.41
2024-03-09T01:02:21.592Z,14.43
2024-03-09T01:04:52.681Z,14.41
2024-03-09T01:07:29.740Z,14.38
2024-03-09T01:10:17.369Z,14.34
2024-03-09T01:12:50.496Z,14.29
2024-03-09T01:15:20.582Z,14.26
2024-03-09T01:17:51.662Z,14.23
2024-03-09T01:20:20.951Z,14.17
2024-03-09T01:22:53.333Z,14.10
2024-03-09T01:25:26.365Z,14.02
2024-03-09T01:27:57.274Z,13.96
2024-03-09T01:30:28.549Z,13.93
2024-03-09T01:32:58.069Z,13.91
2024-03-09T01:35:30.163Z,13.87
2024-03-09T01:38:00.820Z,13.88
2024-03-09T01:40:36.587Z,13.88
2024-03-09T01:43:18.623Z,13.81
2024-03-09T01:45:55.878Z,13.75
2024-03-09T01:48:30.193Z,13.71
2024-03-09T01:51:09.174Z,13.65
2024-03-09T01:53:44.178Z,13.64
2024-03-09T01:56:16.402Z,13.63
2024-03-09T01:58:46.506Z,13.63
2024-03-09T02:01:29.399Z,13.60
2024-03-09T02:03:59.653Z,13.54
2024-03-09T02:06:33.946Z,13.51
2024-03-09T02:09:13.211Z,13.46
2024-03-09T02:11:44.393Z,13.38
2024-03-09T02:14:16.495Z,13.37
2024-03-09T02:16:46.102Z,13.34
2024-03-09T02:19:19.230Z,13.33
2024-03-09T02:21:50.338Z,13.29
2024-03-09T02:24:24.930Z,13.27
2024-03-09T02:26:54.418Z,13.32
2024-03-09T02:29:28.458Z,13.25
2024-03-09T02:31:58.024Z,13.24
2024-03-09T02:34:31.125Z,13.22
2024-03-09T02:37:12.666Z,13.20
2024-03-09T02:39:48.010Z,13.16
2024-03-09T02:42:17.483Z,13.20
2024-03-09T02:44:55.864Z,13.10
2024-03-09T02:47:24.422Z,13.00
2024-03-09T02:49:56.440Z,13.02
2024-03-09T02:52:32.608Z,13.02
2024-03-09T02:55:22.577Z,13.02
2024-03-09T02:57:54.857Z,13.01
2024-03-09T03:00:30.356Z,12.96
2024-03-09T03:03:40.072Z,12.97
2024-03-09T03:06:14.096Z,12.97
2024-03-09T03:08:51.721Z,12.95
2024-03-09T03:11:35.908Z,12.90
2024-03-09T03:14:18.155Z,12.84
2024-03-09T03:17:00.516Z,12.79
2024-03-09T03:19:45.313Z,12.77
2024-03-09T03:22:32.140Z,12.78
2024-03-09T03:25:16.919Z,12.82
2024-03-09T03:27:49.086Z,12.78
2024-03-09T03:30:24.638Z,12.79
2024-03-09T03:32:58.421Z,12.73
2024-03-09T03:35:31.226Z,12.68
2024-03-09T03:38:12.734Z,12.64
2024-03-09T03:40:44.258Z,12.60
2024-03-09T03:43:16.369Z,12.57
2024-03-09T03:45:49.122Z,12.56
2024-03-09T03:48:29.301Z,12.56
2024-03-09T03:51:15.540Z,12.54
2024-03-09T03:53:48.152Z,12.52
2024-03-09T03:56:20.645Z,12.48
2024-03-09T03:58:51.216Z,12.43
2024-03-09T04:01:27.997Z,12.42
2024-03-09T04:03:59.104Z,12.36
2024-03-09T04:06:31.403Z,12.35
2024-03-09T04:09:17.960Z,12.32
2024-03-09T04:11:51.751Z,12.28
2024-03-09T04:14:20.580Z,12.24
2024-03-09T04:16:58.724Z,12.20
2024-03-09T04:19:30.267Z,12.13
2024-03-09T04:22:01.518Z,12.11
2024-03-09T04:24:42.688Z,12.08
2024-03-09T04:27:16.112Z,12.08
2024-03-09T04:29:50.866Z,12.08
2024-03-09T04:32:24.038Z,12.20
2024-03-09T04:35:00.651Z,12.12
2024-03-09T04:37:50.384Z,12.21
2024-03-09T04:40:24.197Z,12.11
2024-03-09T04:42:56.927Z,12.08
2024-03-09T04:45:28.702Z,12.09
2024-03-09T04:48:08.515Z,12.09
2024-03-09T04:50:43.458Z,12.11
2024-03-09T04:53:15.722Z,12.10
2024-03-09T04:55:54.790Z,12.09
2024-03-09T04:58:44.799Z,12.10
2024-03-09T05:01:21.124Z,12.07
2024-03-09T05:03:56.004Z,12.05
2024-03-09T05:06:31.010Z,12.07
2024-03-09T05:08:59.768Z,12.05
2024-03-09T05:11:40.557Z,11.95
2024-03-09T05:14:17.343Z,11.89
2024-03-09T05:16:49.132Z,11.82
2024-03-09T05:19:23.593Z,11.78
2024-03-09T05:21:55.974Z,11.73
2024-03-09T05:24:28.945Z,11.66
2024-03-09T05:26:58.959Z,11.63
2024-03-09T05:29:39.174Z,11.65
2024-03-09T05:32:12.708Z,11.68
2024-03-09T05:34:57.781Z,11.68
2024-03-09T05:37:30.997Z,11.62
2024-03-09T05:40:00.183Z,11.54
2024-03-09T05:42:50.154Z,11.51
2024-03-09T05:45:22.640Z,11.44
2024-03-09T05:47:56.677Z,11.38
2024-03-09T05:50:40.331Z,11.33
2024-03-09T05:53:16.784Z,11.28
2024-03-09T05:55:48.554Z,11.25
2024-03-09T05:58:19.565Z,11.23
2024-03-09T06:00:51.386Z,11.26
2024-03-09T06:03:30.092Z,11.27
2024-03-09T06:05:59.719Z,11.26
2024-03-09T06:08:30.649Z,11.26
2024-03-09T06:11:01.784Z,11.22
2024-03-09T06:13:43.955Z,11.19
2024-03-09T06:16:19.416Z,11.19
2024-03-09T06:18:55.505Z,11.20
2024-03-09T06:21:31.932Z,11.17
2024-03-09T06:24:13.843Z,11.11
2024-03-09T06:26:46.860Z,11.06
2024-03-09T06:29:17.721Z,11.02
2024-03-09T06:31:50.851Z,11.03
2024-03-09T06:34:24.074Z,11.02
2024-03-09T06:36:58.592Z,11.01
2024-03-09T06:39:37.136Z,11.03
2024-03-09T06:42:14.038Z,11.03
2024-03-09T06:44:44.833Z,11.01
2024-03-09T06:47:15.413Z,11.01
2024-03-09T06:49:46.673Z,11.00
2024-03-09T06:52:19.916Z,10.97
2024-03-09T06:54:49.406Z,10.97
2024-03-09T06:57:20.576Z,10.98
2024-03-09T06:59:58.141Z,10.99
2024-03-09T07:02:31.608Z,10.99
2024-03-09T07:05:14.348Z,11.02
2024-03-09T07:07:46.567Z,11.00
2024-03-09T07:10:16.148Z,10.99
2024-03-09T07:12:48.847Z,10.97
2024-03-09T07:15:18.659Z,10.96
2024-03-09T07:17:51.542Z,10.96
2024-03-09T07:20:26.186Z,10.88
2024-03-09T07:22:56.056Z,10.81
2024-03-09T07:25:30.669Z,10.77
2024-03-09T07:28:01.908Z,10.73
2024-03-09T07:30:43.045Z,10.70
2024-03-09T07:33:14.628Z,10.67
2024-03-09T07:35:46.405Z,10.66
2024-03-09T07:38:15.853Z,10.66
2024-03-09T07:40:45.954Z,10.66
2024-03-09T07:43:19.859Z,10.64
2024-03-09T07:45:49.227Z,10.59
2024-03-09T07:48:18.456Z,10.56
2024-03-09T07:50:51.070Z,10.54
2024-03-09T07:53:20.649Z,10.51
2024-03-09T07:55:49.958Z,10.49
2024-03-09T07:58:25.550Z,10.47
2024-03-09T08:00:59.093Z,10.47
2024-03-09T08:03:30.270Z,10.45
2024-03-09T08:05:59.980Z,10.43
2024-03-09T08:08:29.305Z,10.42
2024-03-09T08:11:01.223Z,10.40
2024-03-09T08:13:44.988Z,10.41
2024-03-09T08:16:13.596Z,10.34
2024-03-09T08:18:43.393Z,10.31
2024-03-09T08:21:12.656Z,10.23
2024-03-09T08:23:45.402Z,10.19
2024-03-09T08:26:14.740Z,10.16
2024-03-09T08:28:51.693Z,10.17
2024-03-09T08:31:21.431Z,10.15
2024-03-09T08:33:53.303Z,10.16
2024-03-09T08:36:25.877Z,10.13
2024-03-09T08:38:59.795Z,10.19
2024-03-09T08:41:43.228Z,10.19
2024-03-09T08:44:15.060Z,10.17
2024-03-09T08:46:45.751Z,10.16
2024-03-09T08:49:17.091Z,10.14
2024-03-09T08:51:46.810Z,10.13
2024-03-09T08:54:20.245Z,10.10
2024-03-09T08:56:53.910Z,10.14
2024-03-09T08:59:25.309Z,10.15
2024-03-09T09:01:56.970Z,10.17
2024-03-09T09:04:27.999Z,10.17
2024-03-09T09:06:59.048Z,10.17
2024-03-09T09:09:28.538Z,10.17
2024-03-09T09:12:00.413Z,10.16
2024-03-09T09:14:29.444Z,10.14
2024-03-09T09:16:59.413Z,10.15
2024-03-09T09:19:28.578Z,10.14
2024-03-09T09:21:59.250Z,10.15
2024-03-09T09:24:27.677Z,10.13
2024-03-09T09:26:57.777Z,10.07
2024-03-09T09:29:30.278Z,9.99
2024-03-09T09:32:03.544Z,9.89
2024-03-09T09:34:43.081Z,9.78
2024-03-09T09:37:14.140Z,9.73
2024-03-09T09:39:45.180Z,9.66
2024-03-09T09:42:15.707Z,9.64
2024-03-09T09:44:46.919Z,9.61
2024-03-09T09:47:18.323Z,9.62
2024-03-09T09:49:47.685Z,9.64
2024-03-09T09:52:18.323Z,9.67
2024-03-09T09:54:47.435Z,9.66
2024-03-09T09:57:19.794Z,9.66
2024-03-09T09:59:48.393Z,9.63
2024-03-09T10:02:50.068Z,9.66
2024-03-09T10:05:20.468Z,9.65
2024-03-09T10:08:13.320Z,9.68
2024-03-09T10:10:50.288Z,9.68
2024-03-09T10:13:20.064Z,9.72
2024-03-09T10:15:52.610Z,9.69
2024-03-09T10:18:28.416Z,9.71
2024-03-09T10:21:10.101Z,9.73
2024-03-09T10:23:47.572Z,9.75
2024-03-09T10:26:18.187Z,9.81
2024-03-09T10:29:09.416Z,9.87
2024-03-09T10:31:52.065Z,9.88
2024-03-09T10:34:21.125Z,9.81
2024-03-09T10:36:50.311Z,9.79
2024-03-09T10:39:22.041Z,9.79
2024-03-09T10:42:00.011Z,9.80
2024-03-09T10:44:31.046Z,9.77
2024-03-09T10:47:12.153Z,9.78
2024-03-09T10:49:49.800Z,9.79
2024-03-09T10:52:25.536Z,9.81
2024-03-09T10:55:13.230Z,9.86
2024-03-09T10:57:49.006Z,9.84
2024-03-09T11:00:30.127Z,9.83
2024-03-09T11:03:13.963Z,9.81
2024-03-09T11:05:50.057Z,9.76
2024-03-09T11:08:20.190Z,9.78
2024-03-09T11:10:51.631Z,9.77
2024-03-09T11:13:21.350Z,9.73
2024-03-09T11:15:53.499Z,9.74
2024-03-09T11:18:58.679Z,9.74
2024-03-09T11:21:31.732Z,9.80
2024-03-09T11:24:15.399Z,9.75
2024-03-09T11:26:57.720Z,9.75
2024-03-09T11:29:45.922Z,9.75
2024-03-09T11:32:25.074Z,9.67
2024-03-09T11:35:42.922Z,9.65
2024-03-09T11:38:15.384Z,9.62
2024-03-09T11:40:50.227Z,9.62
2024-03-09T11:43:22.728Z,9.63
2024-03-09T11:45:51.651Z,9.64
2024-03-09T11:48:39.862Z,9.66
2024-03-09T11:51:20.052Z,9.70
2024-03-09T11:53:51.551Z,9.72
2024-03-09T11:56:23.952Z,9.72
2024-03-09T11:58:57.766Z,9.68
2024-03-09T12:01:29.438Z,9.65
2024-03-09T12:04:03.071Z,9.66
2024-03-09T12:06:44.907Z,9.66
2024-03-09T12:09:25.012Z,9.64
2024-03-09T12:11:59.654Z,9.61
2024-03-09T12:14:46.472Z,9.63
2024-03-09T12:17:19.029Z,9.63
2024-03-09T12:19:51.899Z,9.63
2024-03-09T12:22:28.319Z,9.63
2024-03-09T12:25:01.417Z,9.61
2024-03-09T12:27:47.465Z,9.64
2024-03-09T12:30:19.324Z,9.64
2024-03-09T12:32:50.073Z,9.64
2024-03-09T12:35:23.774Z,9.63
2024-03-09T12:37:55.209Z,9.64
2024-03-09T12:40:27.724Z,9.62
2024-03-09T12:42:58.563Z,9.58
2024-03-09T12:45:28.099Z,9.61
2024-03-09T12:47:59.979Z,9.60
2024-03-09T12:50:29.622Z,9.59
2024-03-09T12:53:01.920Z,9.60
2024-03-09T12:55:47.851Z,9.59
2024-03-09T12:58:23.004Z,9.49
2024-03-09T13:01:07.084Z,9.50
2024-03-09T13:03:44.199Z,9.50
2024-03-09T13:06:19.853Z,9.48
2024-03-09T13:08:48.861Z,9.46
2024-03-09T13:11:23.281Z,9.45
2024-03-09T13:13:52.000Z,9.38
2024-03-09T13:16:22.659Z,9.48
2024-03-09T13:18:56.657Z,9.49
2024-03-09T13:21:26.134Z,9.51
2024-03-09T13:24:00.090Z,9.52
2024-03-09T13:26:30.001Z,9.53
2024-03-09T13:28:59.090Z,9.54
2024-03-09T13:31:29.390Z,9.55
2024-03-09T13:34:01.720Z,9.51
2024-03-09T13:36:43.235Z,9.48
2024-03-09T13:39:20.231Z,9.43
2024-03-09T13:41:50.451Z,9.40
2024-03-09T13:44:26.334Z,9.40
2024-03-09T13:47:13.687Z,9.42
2024-03-09T13:50:15.312Z,9.47
2024-03-09T13:52:46.432Z,9.43
2024-03-09T13:55:20.654Z,9.41
2024-03-09T13:57:55.665Z,9.39
2024-03-09T14:00:29.995Z,9.41
2024-03-09T14:03:01.460Z,9.38
2024-03-09T14:05:46.257Z,9.36
2024-03-09T14:08:16.883Z,9.34
2024-03-09T14:10:57.519Z,9.36
2024-03-09T14:13:28.418Z,9.41
2024-03-09T14:16:00.014Z,9.40
2024-03-09T14:18:30.732Z,9.39
2024-03-09T14:21:01.379Z,9.36
2024-03-09T14:23:47.659Z,9.39
2024-03-09T14:26:32.343Z,9.37
2024-03-09T14:29:19.535Z,9.34
2024-03-09T14:32:00.699Z,9.36
2024-03-09T14:34:53.581Z,9.34
2024-03-09T14:37:23.748Z,9.32
2024-03-09T14:39:58.841Z,9.26
2024-03-09T14:42:28.892Z,9.20
2024-03-09T14:45:03.277Z,9.18
2024-03-09T14:47:46.643Z,9.20
2024-03-09T14:50:21.615Z,9.24
2024-03-09T14:52:56.793Z,9.22
2024-03-09T14:55:29.713Z,9.14
2024-03-09T14:58:07.500Z,9.10
2024-03-09T15:00:46.283Z,9.09
2024-03-09T15:03:45.921Z,9.11
2024-03-09T15:06:18.937Z,9.15
2024-03-09T15:08:55.091Z,9.18
2024-03-09T15:11:23.707Z,9.17
2024-03-09T15:14:02.932Z,9.15
2024-03-09T15:16:46.289Z,9.17
2024-03-09T15:19:25.990Z,9.18
2024-03-09T15:21:59.287Z,9.18
2024-03-09T15:24:28.546Z,9.19
2024-03-09T15:27:00.224Z,9.16
2024-03-09T15:29:38.937Z,9.20
2024-03-09T15:32:21.238Z,9.22
2024-03-09T15:34:56.268Z,9.23
2024-03-09T15:37:27.843Z,9.24
2024-03-09T15:40:06.274Z,9.25
2024-03-09T15:42:42.799Z,9.24
2024-03-09T15:45:16.243Z,9.25
2024-03-09T15:47:55.054Z,9.26
2024-03-09T15:50:27.755Z,9.29
2024-03-09T15:53:01.506Z,9.35
2024-03-09T15:55:41.472Z,9.41
2024-03-09T15:58:16.032Z,9.47
2024-03-09T16:00:49.467Z,9.52
2024-03-09T16:03:20.386Z,9.53
2024-03-09T16:05:53.466Z,9.56
2024-03-09T16:08:24.840Z,9.58
2024-03-09T16:10:58.356Z,9.61
2024-03-09T16:13:27.887Z,9.64
2024-03-09T16:15:56.877Z,9.67
2024-03-09T16:18:28.810Z,9.72
2024-03-09T16:21:17.680Z,9.80
2024-03-09T16:23:56.946Z,9.73
2024-03-09T16:26:26.787Z,9.70
2024-03-09T16:28:55.989Z,9.76
2024-03-09T16:31:28.723Z,9.81
2024-03-09T16:34:19.391Z,9.87
2024-03-09T16:36:55.152Z,9.92
2024-03-09T16:39:24.858Z,9.95
2024-03-09T16:42:00.001Z,9.97
2024-03-09T16:44:29.498Z,9.99
2024-03-09T16:47:00.903Z,10.00
2024-03-09T16:49:33.813Z,10.01
2024-03-09T16:52:14.836Z,10.06
2024-03-09T16:54:44.878Z,10.07
2024-03-09T16:57:15.910Z,10.09
2024-03-09T16:59:46.965Z,10.14
2024-03-09T17:02:23.599Z,10.18
2024-03-09T17:04:58.928Z,10.18
2024-03-09T17:07:40.417Z,10.22
2024-03-09T17:10:17.405Z,10.24
2024-03-09T17:12:54.210Z,10.22
2024-03-09T17:15:25.294Z,10.21
2024-03-09T17:17:55.942Z,10.23
2024-03-09T17:20:29.912Z,10.24
2024-03-09T17:23:19.824Z,10.28
2024-03-09T17:25:51.133Z,10.27
2024-03-09T17:28:22.500Z,10.29
2024-03-09T17:30:58.139Z,10.34
2024-03-09T17:33:39.928Z,10.38
2024-03-09T17:36:14.108Z,10.40
2024-03-09T17:38:49.354Z,10.42
2024-03-09T17:41:31.829Z,10.44
2024-03-09T17:44:12.745Z,10.47
2024-03-09T17:46:47.008Z,10.50
2024-03-09T17:49:16.591Z,10.51
2024-03-09T17:51:46.286Z,10.56
2024-03-09T17:54:16.589Z,10.59
2024-03-09T17:56:55.481Z,10.62
2024-03-09T17:59:26.318Z,10.65
2024-03-09T18:01:57.870Z,10.67
2024-03-09T18:04:27.315Z,10.68
2024-03-09T18:06:56.569Z,10.72
2024-03-09T18:09:25.332Z,10.74
2024-03-09T18:11:54.945Z,10.76
2024-03-09T18:14:25.411Z,10.77
2024-03-09T18:17:11.408Z,10.81
2024-03-09T18:19:43.006Z,10.84
2024-03-09T18:22:14.533Z,10.83
2024-03-09T18:24:52.248Z,10.86
2024-03-09T18:27:24.260Z,10.89
2024-03-09T18:29:54.555Z,10.91
2024-03-09T18:32:28.241Z,10.91
2024-03-09T18:35:00.400Z,10.96
2024-03-09T18:37:28.967Z,10.92
2024-03-09T18:40:16.184Z,11.01
2024-03-09T18:42:47.776Z,11.05
2024-03-09T18:45:18.408Z,11.06
2024-03-09T18:47:51.055Z,11.09
2024-03-09T18:50:25.533Z,11.11
2024-03-09T18:52:59.994Z,11.14
2024-03-09T18:55:29.668Z,11.24
2024-03-09T18:58:17.534Z,11.17
2024-03-09T19:00:46.813Z,11.14
2024-03-09T19:03:19.685Z,11.14
2024-03-09T19:05:50.093Z,11.17
2024-03-09T19:08:24.025Z,11.23
2024-03-09T19:10:59.121Z,11.29
2024-03-09T19:13:28.545Z,11.29
2024-03-09T19:16:07.910Z,11.34
2024-03-09T19:18:41.302Z,11.34
2024-03-09T19:21:14.047Z,11.30
2024-03-09T19:23:46.877Z,11.27
2024-03-09T19:26:20.716Z,11.30
2024-03-09T19:28:53.364Z,11.31
2024-03-09T19:31:26.595Z,11.30
2024-03-09T19:34:12.246Z,11.34
2024-03-09T19:36:42.950Z,11.31
2024-03-09T19:39:20.798Z,11.34
2024-03-09T19:41:50.994Z,11.38
2024-03-09T19:44:20.754Z,11.39
2024-03-09T19:46:54.219Z,11.40
2024-03-09T19:49:22.783Z,11.42
2024-03-09T19:51:58.893Z,11.42
2024-03-09T19:54:29.473Z,11.42
2024-03-09T19:56:59.418Z,11.41
2024-03-09T19:59:28.676Z,11.42
2024-03-09T20:01:59.130Z,11.40
2024-03-09T20:04:27.724Z,11.41
2024-03-09T20:07:01.341Z,11.42
2024-03-09T20:09:34.730Z,11.41
2024-03-09T20:12:19.609Z,11.42
2024-03-09T20:14:51.815Z,11.45
2024-03-09T20:17:25.106Z,11.47
2024-03-09T20:19:57.413Z,11.48
2024-03-09T20:22:31.083Z,11.48
2024-03-09T20:25:19.391Z,11.51
2024-03-09T20:27:57.436Z,11.51
2024-03-09T20:30:28.239Z,11.53
2024-03-09T20:33:06.946Z,11.56
2024-03-09T20:35:42.737Z,11.59
2024-03-09T20:38:31.983Z,11.60
2024-03-09T20:41:14.937Z,11.60
2024-03-09T20:43:58.821Z,11.63
2024-03-09T20:46:39.769Z,11.63
2024-03-09T20:49:19.105Z,11.67
2024-03-09T20:51:54.221Z,11.69
2024-03-09T20:54:56.507Z,11.73
2024-03-09T20:57:43.194Z,11.75
2024-03-09T21:00:24.574Z,11.78
2024-03-09T21:06:02.678Z,11.85
2024-03-09T21:08:50.892Z,11.89
2024-03-09T21:11:54.811Z,11.94
2024-03-09T21:14:27.901Z,11.97
2024-03-09T21:17:00.190Z,12.00
2024-03-09T21:19:45.212Z,12.01
2024-03-09T21:22:23.480Z,12.04
2024-03-09T21:25:18.999Z,12.07
2024-03-09T21:27:48.738Z,12.08
2024-03-09T21:30:22.648Z,12.10
2024-03-09T21:32:53.086Z,12.13
2024-03-09T21:35:22.016Z,12.15
2024-03-09T21:37:59.240Z,12.19
2024-03-09T21:40:31.390Z,12.21
2024-03-09T21:43:28.109Z,12.25
2024-03-09T21:46:12.711Z,12.27
2024-03-09T21:48:43.864Z,12.26
2024-03-09T21:51:18.383Z,12.25
2024-03-09T21:53:52.752Z,12.27
2024-03-09T21:56:26.910Z,12.25
2024-03-09T21:59:02.466Z,12.25
2024-03-09T22:01:56.926Z,12.25
2024-03-09T22:04:45.169Z,12.26
2024-03-09T22:07:17.428Z,12.26
2024-03-09T22:09:55.022Z,12.27
2024-03-09T22:12:26.482Z,12.26
2024-03-09T22:14:59.588Z,12.26
2024-03-09T22:17:40.439Z,12.25
2024-03-09T22:20:21.013Z,12.25
2024-03-09T22:22:56.768Z,12.25
2024-03-09T22:25:38.119Z,12.25
2024-03-09T22:28:15.749Z,12.24
2024-03-09T22:30:49.778Z,12.20
2024-03-09T22:33:25.404Z,12.14
2024-03-09T22:35:56.500Z,12.10
2024-03-09T22:38:26.265Z,12.04
2024-03-09T22:40:58.248Z,11.98
2024-03-09T22:43:46.795Z,11.95
2024-03-09T22:46:22.240Z,11.89
2024-03-09T22:48:57.108Z,11.80
2024-03-09T22:51:37.907Z,11.69
2024-03-09T22:54:18.511Z,11.60
2024-03-09T22:56:56.169Z,11.51
2024-03-09T22:59:26.269Z,11.37
2024-03-09T23:01:55.063Z,11.23
2024-03-09T23:04:24.480Z,11.11
2024-03-09T23:06:52.887Z,11.02
2024-03-09T23:09:21.424Z,10.88
2024-03-09T23:11:53.649Z,10.82
2024-03-09T23:14:23.139Z,10.74
2024-03-09T23:16:52.196Z,10.66
2024-03-09T23:19:25.008Z,10.61
2024-03-09T23:22:08.995Z,10.57
2024-03-09T23:24:54.616Z,10.50
2024-03-09T23:27:24.583Z,10.43
2024-03-09T23:29:54.785Z,10.36
2024-03-09T23:32:24.318Z,10.33
2024-03-09T23:34:53.756Z,10.27
2024-03-09T23:37:22.120Z,10.27
2024-03-09T23:39:53.794Z,10.28
2024-03-09T23:42:25.349Z,10.25
2024-03-09T23:44:55.154Z,10.22
2024-03-09T23:47:23.894Z,10.24
2024-03-09T23:49:53.442Z,10.27
2024-03-09T23:52:22.287Z,10.25
2024-03-09T23:54:56.638Z,10.27
2024-03-09T23:57:40.011Z,10.31
